createdAt,value
2022-11-22T00:03:21.846Z,-1.76
2022-11-22T00:08:23.899Z,-1.83
2022-11-22T00:13:26.017Z,-1.88
2022-11-22T00:18:30.002Z,-1.99
2022-11-22T00:23:32.137Z,-1.99
2022-11-22T00:28:34.014Z,-2.03
2022-11-22T00:33:37.339Z,-2.04
2022-11-22T00:38:39.270Z,-2.11
2022-11-22T00:43:41.307Z,-2.04
2022-11-22T00:48:44.955Z,-2.08
2022-11-22T00:53:47.052Z,-2.12
2022-11-22T00:58:49.063Z,-2.13
2022-11-22T01:03:52.631Z,-2.22
2022-11-22T01:08:54.718Z,-2.26
2022-11-22T01:13:56.980Z,-2.32
2022-11-22T01:19:00.852Z,-2.35
2022-11-22T01:24:02.971Z,-2.45
2022-11-22T01:29:05.484Z,-2.45
2022-11-22T01:34:08.775Z,-2.46
2022-11-22T01:39:10.910Z,-2.45
2022-11-22T01:44:21.684Z,-2.51
2022-11-22T01:49:31.207Z,-2.47
2022-11-22T01:54:38.817Z,-2.53
2022-11-22T01:59:46.316Z,-2.55
2022-11-22T02:04:52.218Z,-2.52
2022-11-22T02:09:54.819Z,-2.48
2022-11-22T02:14:57.477Z,-2.54
2022-11-22T02:20:00.892Z,-2.57
2022-11-22T02:25:12.097Z,-2.57
2022-11-22T02:30:16.282Z,-2.57
2022-11-22T02:35:20.208Z,-2.55
2022-11-22T02:40:23.525Z,-2.54
2022-11-22T02:45:27.120Z,-2.52
2022-11-22T02:50:28.780Z,-2.60
2022-11-22T02:55:30.969Z,-2.63
2022-11-22T03:00:35.478Z,-2.66
2022-11-22T03:05:37.314Z,-2.70
2022-11-22T03:10:39.062Z,-2.80
2022-11-22T03:15:42.529Z,-2.72
2022-11-22T03:20:44.876Z,-2.78
2022-11-22T03:25:47.167Z,-2.84
2022-11-22T03:30:50.625Z,-2.81
2022-11-22T03:35:56.039Z,-2.86
2022-11-22T03:40:58.411Z,-2.83
2022-11-22T03:46:02.230Z,-2.89
2022-11-22T03:51:05.336Z,-2.91
2022-11-22T03:56:07.603Z,-2.98
2022-11-22T04:01:16.304Z,-2.99
2022-11-22T04:06:19.018Z,-2.98
2022-11-22T04:11:21.452Z,-2.93
2022-11-22T04:16:25.016Z,-2.95
2022-11-22T04:21:27.330Z,-2.93
2022-11-22T04:26:29.016Z,-2.82
2022-11-22T04:31:32.510Z,-2.74
2022-11-22T04:36:34.413Z,-2.65
2022-11-22T04:41:36.497Z,-2.65
2022-11-22T04:46:40.005Z,-2.53
2022-11-22T04:51:41.756Z,-2.54
2022-11-22T04:56:43.910Z,-2.54
2022-11-22T05:01:47.378Z,-2.53
2022-11-22T05:06:51.774Z,-2.46
2022-11-22T05:11:53.910Z,-2.44
2022-11-22T05:16:57.583Z,-2.42
2022-11-22T05:22:00.238Z,-2.36
2022-11-22T05:27:02.320Z,-2.39
2022-11-22T05:32:05.915Z,-2.37
2022-11-22T05:37:08.086Z,-2.35
2022-11-22T05:42:10.171Z,-2.30
2022-11-22T05:47:13.720Z,-2.35
2022-11-22T05:52:16.511Z,-2.26
2022-11-22T05:57:18.954Z,-2.22
2022-11-22T06:02:22.555Z,-2.17
2022-11-22T06:07:24.858Z,-2.14
2022-11-22T06:12:27.277Z,-2.09
2022-11-22T06:17:30.947Z,-2.09
2022-11-22T06:22:32.916Z,-2.01
2022-11-22T06:27:35.066Z,-1.97
2022-11-22T06:32:38.106Z,-1.92
2022-11-22T06:37:40.341Z,-1.85
2022-11-22T06:42:42.527Z,-1.83
2022-11-22T06:47:46.023Z,-1.81
2022-11-22T06:52:51.184Z,-1.77
2022-11-22T06:57:53.255Z,-1.76
2022-11-22T07:02:56.670Z,-1.70
2022-11-22T07:08:05.433Z,-1.67
2022-11-22T07:13:11.382Z,-1.66
2022-11-22T07:18:14.392Z,-1.59
2022-11-22T07:23:17.376Z,-1.52
2022-11-22T07:28:19.209Z,-1.45
2022-11-22T07:33:22.204Z,-1.40
2022-11-22T07:38:23.878Z,-1.38
2022-11-22T07:43:26.048Z,-1.33
2022-11-22T07:48:29.745Z,-1.24
2022-11-22T07:53:32.179Z,-1.19
2022-11-22T07:58:35.192Z,-1.11
2022-11-22T08:03:38.574Z,-1.08
2022-11-22T08:08:41.005Z,-1.01
2022-11-22T08:13:43.034Z,-1.00
2022-11-22T08:18:49.548Z,-0.91
2022-11-22T08:23:51.805Z,-0.91
2022-11-22T08:28:53.741Z,-0.95
2022-11-22T08:33:57.087Z,-0.86
2022-11-22T08:38:59.401Z,-0.87
2022-11-22T08:44:01.109Z,-0.84
2022-11-22T08:49:04.519Z,-0.78
2022-11-22T08:54:06.456Z,-0.71
2022-11-22T08:59:08.634Z,-0.65
2022-11-22T09:04:11.990Z,-0.65
2022-11-22T09:14:36.513Z,-0.63
2022-11-22T09:19:40.116Z,-0.52
2022-11-22T09:24:42.412Z,-0.47
2022-11-22T09:29:44.503Z,-0.38
2022-11-22T09:34:47.972Z,-0.30
2022-11-22T09:39:50.001Z,-0.18
2022-11-22T09:45:22.274Z,-0.10
2022-11-22T09:50:34.194Z,-0.08
2022-11-22T09:55:42.097Z,0.02
2022-11-22T10:00:49.184Z,0.06
2022-11-22T10:05:59.021Z,0.11
2022-11-22T10:11:03.805Z,0.19
2022-11-22T10:16:14.656Z,0.21
2022-11-22T10:21:19.953Z,0.42
2022-11-22T10:26:26.399Z,0.43
2022-11-22T10:31:34.477Z,0.49
2022-11-22T10:36:47.131Z,0.46
2022-11-22T10:42:01.622Z,0.46
2022-11-22T10:47:16.206Z,0.49
2022-11-22T10:52:30.642Z,0.64
2022-11-22T10:57:39.062Z,0.84
2022-11-22T11:03:03.329Z,0.85
2022-11-22T11:08:38.956Z,0.87
2022-11-22T11:13:37.756Z,0.95
2022-11-22T11:18:43.512Z,0.95
2022-11-22T11:23:47.124Z,1.19
2022-11-22T11:28:50.166Z,1.46
2022-11-22T11:33:52.270Z,1.42
2022-11-22T11:38:59.438Z,1.34
2022-11-22T11:44:03.168Z,1.82
2022-11-22T11:49:10.304Z,1.79
2022-11-22T11:54:16.090Z,1.74
2022-11-22T11:59:19.747Z,1.86
2022-11-22T12:04:25.451Z,1.77
2022-11-22T12:09:31.528Z,1.68
2022-11-22T12:15:03.329Z,1.82
2022-11-22T12:20:02.642Z,1.81
2022-11-22T12:25:31.996Z,1.73
2022-11-22T12:30:38.832Z,1.84
2022-11-22T12:35:44.992Z,1.90
2022-11-22T12:40:51.705Z,1.93
2022-11-22T12:45:57.063Z,1.90
2022-11-22T12:51:03.883Z,2.07
2022-11-22T12:56:19.308Z,2.07
2022-11-22T13:01:25.891Z,2.10
2022-11-22T13:06:34.997Z,2.13
2022-11-22T13:11:45.289Z,2.09
2022-11-22T13:16:49.163Z,2.29
2022-11-22T13:22:08.225Z,2.29
2022-11-22T13:27:19.342Z,2.32
2022-11-22T13:32:23.280Z,2.33
2022-11-22T13:37:26.795Z,2.36
2022-11-22T13:42:29.968Z,2.26
2022-11-22T13:47:45.164Z,2.21
2022-11-22T13:52:51.780Z,2.20
2022-11-22T13:57:55.360Z,2.20
2022-11-22T14:03:24.210Z,2.14
2022-11-22T14:08:33.143Z,2.10
2022-11-22T14:13:45.865Z,2.09
2022-11-22T14:18:56.380Z,2.00
2022-11-22T14:24:06.109Z,1.88
2022-11-22T14:29:47.122Z,1.84
2022-11-22T14:35:18.539Z,1.81
2022-11-22T14:40:31.451Z,1.78
2022-11-22T14:45:43.572Z,1.78
2022-11-22T14:50:58.513Z,1.77
2022-11-22T14:56:06.578Z,1.77
2022-11-22T15:01:40.335Z,1.72
2022-11-22T15:09:12.784Z,1.61
2022-11-22T15:12:36.181Z,1.59
2022-11-22T16:01:20.500Z,1.70
2022-11-22T16:06:25.810Z,1.68
2022-11-22T16:11:29.952Z,1.70
2022-11-22T16:16:33.584Z,1.68
2022-11-22T16:21:37.069Z,1.73
2022-11-22T16:26:39.521Z,1.71
2022-11-22T16:31:41.608Z,1.71
2022-11-22T16:36:45.019Z,1.70
2022-11-22T16:41:47.968Z,1.70
2022-11-22T16:46:50.507Z,1.64
2022-11-22T16:51:53.726Z,1.59
2022-11-22T16:56:56.408Z,1.61
2022-11-22T17:01:59.922Z,1.55
2022-11-22T17:07:03.210Z,1.51
2022-11-22T17:12:13.345Z,1.47
2022-11-22T17:17:15.465Z,1.48
2022-11-22T17:22:19.252Z,1.51
2022-11-22T17:27:20.959Z,1.57
2022-11-22T17:32:22.636Z,1.57
2022-11-22T17:37:26.199Z,1.48
2022-11-22T17:42:28.420Z,1.51
2022-11-22T17:47:30.532Z,1.50
2022-11-22T17:52:34.024Z,1.49
2022-11-22T17:57:36.054Z,1.49
2022-11-22T18:02:38.099Z,1.50
2022-11-22T18:07:41.844Z,1.49
2022-11-22T18:12:58.608Z,1.47
2022-11-22T18:18:06.446Z,1.41
2022-11-22T18:23:10.123Z,1.36
2022-11-22T18:28:13.177Z,1.35
2022-11-22T18:33:15.406Z,1.35
2022-11-22T18:38:18.529Z,1.41
2022-11-22T18:43:21.040Z,1.46
2022-11-22T18:48:23.322Z,1.44
2022-11-22T18:53:28.356Z,1.45
2022-11-22T18:58:34.557Z,1.44
2022-11-22T19:03:36.507Z,1.47
2022-11-22T19:08:41.979Z,1.45
2022-11-22T19:13:44.576Z,1.46
2022-11-22T19:18:46.267Z,1.46
2022-11-22T19:23:50.007Z,1.44
2022-11-22T19:28:52.926Z,1.50
2022-11-22T19:33:55.147Z,1.54
2022-11-22T19:38:58.305Z,1.45
2022-11-22T19:44:00.946Z,1.39
2022-11-22T19:49:03.322Z,1.42
2022-11-22T19:54:07.240Z,1.41
2022-11-22T19:59:11.145Z,1.23
2022-11-22T20:04:13.881Z,1.11
2022-11-22T20:09:16.956Z,1.01
2022-11-22T20:14:19.007Z,0.92
2022-11-22T20:19:21.055Z,0.83
2022-11-22T20:24:24.465Z,0.77
2022-11-22T20:29:26.918Z,0.70
2022-11-22T20:34:29.072Z,0.67
2022-11-22T20:39:32.593Z,0.63
2022-11-22T20:44:34.524Z,0.64
2022-11-22T20:49:38.813Z,0.54
2022-11-22T20:54:44.144Z,0.50
2022-11-22T20:59:46.173Z,0.47
2022-11-22T21:04:47.916Z,0.41
2022-11-22T21:09:50.995Z,0.34
2022-11-22T21:14:53.909Z,0.27
2022-11-22T21:19:58.544Z,0.26
2022-11-22T21:25:01.614Z,0.10
2022-11-22T21:30:03.814Z,0.01
2022-11-22T21:35:06.961Z,-0.07
2022-11-22T21:40:11.867Z,-0.04
2022-11-22T21:45:14.321Z,-0.14
2022-11-22T21:50:16.685Z,-0.24
2022-11-22T21:55:20.265Z,-0.23
2022-11-22T22:00:22.982Z,-0.28
2022-11-22T22:05:25.263Z,-0.34
2022-11-22T22:10:28.349Z,-0.40
2022-11-22T22:15:30.383Z,-0.42
2022-11-22T22:20:32.518Z,-0.38
2022-11-22T22:25:39.009Z,-0.53
2022-11-22T22:30:41.068Z,-0.47
2022-11-22T22:35:42.997Z,-0.45
2022-11-22T22:40:52.452Z,-0.49
2022-11-22T22:45:54.815Z,-0.46
2022-11-22T22:50:56.642Z,-0.45
2022-11-22T22:56:00.197Z,-0.46
2022-11-22T23:01:07.075Z,-0.42
2022-11-22T23:06:11.393Z,-0.42
2022-11-22T23:11:16.392Z,-0.40
2022-11-22T23:16:18.402Z,-0.43
2022-11-22T23:21:20.079Z,-0.44
2022-11-22T23:26:23.707Z,-0.46
2022-11-22T23:31:26.722Z,-0.45
2022-11-22T23:36:28.598Z,-0.48
2022-11-22T23:41:31.690Z,-0.47
2022-11-22T23:46:33.849Z,-0.52
2022-11-22T23:51:38.540Z,-0.57
2022-11-22T23:56:42.261Z,-0.46
